Skip Navigation LinksHome page > Weather > Current weather Skip Navigation Links

Current Weather

Indira Gandhi Intl Apt, New Delhi, India

For information only: do not use for flight planning or navigation.
Latest weather
Observation time Monday, May 22, 2017 8:30 PM IST
Local time Monday, May 22, 2017 9:10 PM IST
Flight conditions Instrument Meteorological Conditions
Winds
Wind speed calm
Visibility 1.7 mi.
Present weather haze
Sky condition
Ceiling 10,000 ft. broken clouds
Cloud layer scattered clouds 3,000 ft.
Cloud layer broken clouds 10,000 ft.
Temperature 82°F
Dewpoint 64°F
Altimeter 29.68 in.Hg
Derived measurements
Relative humidity 55%
Heat index 84°F
Density altitude 2820 ft.
Remarks
No significant changes expected in the next two hours.
METAR VIDP 221500Z 00000KT 2800 HZ SCT030 BKN100 28/18 Q1005 NOSIG

Settings

Location code

InnerDrive.Weather 4.0.6144.1 Release CLR 4.0.30319.36366
Copyright ©2015 Inner Drive Technology. All rights reserved. Portions Copyright ©1986-2015 David Braverman.

Find weather

Site navigation


Skip Navigation Links

Place info

Page info

PayPal - The safer, easier way to pay online!

Return home.

Copyright ©2017 Inner Drive Technology. Purveyors of fine, hand-crafted computer software. Page printed 2017-05-22T15:40:36 UTC.